createdAt,value
2022-09-07T00:00:08.819Z,100.00
2022-09-07T00:02:36.848Z,100.00
2022-09-07T00:05:03.726Z,100.00
2022-09-07T00:07:30.720Z,100.00
2022-09-07T00:09:57.222Z,100.00
2022-09-07T00:12:23.685Z,100.00
2022-09-07T00:14:51.073Z,100.00
2022-09-07T00:17:17.653Z,100.00
2022-09-07T00:19:44.167Z,100.00
2022-09-07T00:22:10.635Z,100.00
2022-09-07T00:24:37.123Z,100.00
2022-09-07T00:27:03.712Z,100.00
2022-09-07T00:29:30.393Z,100.00
2022-09-07T00:31:56.883Z,100.00
2022-09-07T00:34:23.383Z,100.00
2022-09-07T00:36:49.899Z,100.00
2022-09-07T00:39:16.423Z,100.00
2022-09-07T00:41:43.059Z,100.00
2022-09-07T00:44:43.536Z,100.00
2022-09-07T00:47:17.679Z,100.00
2022-09-07T00:49:45.785Z,100.00
2022-09-07T00:52:12.588Z,100.00
2022-09-07T00:54:42.709Z,100.00
2022-09-07T00:57:09.590Z,100.00
2022-09-07T00:59:41.703Z,100.00
2022-09-07T01:02:08.681Z,100.00
2022-09-07T01:04:35.968Z,100.00
2022-09-07T01:07:03.604Z,100.00
2022-09-07T01:09:30.988Z,100.00
2022-09-07T01:11:59.163Z,100.00
2022-09-07T01:14:35.515Z,100.00
2022-09-07T01:17:09.173Z,100.00
2022-09-07T01:19:58.079Z,100.00
2022-09-07T01:22:56.023Z,100.00
2022-09-07T01:25:42.924Z,100.00
2022-09-07T01:28:23.383Z,100.00
2022-09-07T01:30:58.079Z,100.00
2022-09-07T01:33:31.175Z,100.00
2022-09-07T01:36:16.073Z,100.00
2022-09-07T01:38:44.978Z,100.00
2022-09-07T01:41:18.286Z,100.00
2022-09-07T01:44:00.489Z,100.00
2022-09-07T01:46:30.417Z,100.00
2022-09-07T01:49:12.256Z,100.00
2022-09-07T01:51:42.561Z,100.00
2022-09-07T01:54:21.423Z,100.00
2022-09-07T01:56:50.316Z,100.00
2022-09-07T01:59:30.103Z,100.00
2022-09-07T02:02:02.187Z,100.00
2022-09-07T02:04:39.939Z,100.00
2022-09-07T02:07:13.190Z,100.00
2022-09-07T02:09:49.957Z,100.00
2022-09-07T02:12:22.872Z,100.00
2022-09-07T02:14:54.341Z,100.00
2022-09-07T02:17:32.741Z,100.00
2022-09-07T02:20:05.558Z,100.00
2022-09-07T02:22:39.281Z,100.00
2022-09-07T02:25:08.139Z,100.00
2022-09-07T02:27:46.039Z,100.00
2022-09-07T02:30:13.165Z,100.00
2022-09-07T02:32:39.803Z,100.00
2022-09-07T02:35:07.306Z,100.00
2022-09-07T02:37:35.107Z,100.00
2022-09-07T02:40:02.114Z,100.00
2022-09-07T02:42:33.547Z,100.00
2022-09-07T02:45:01.001Z,100.00
2022-09-07T02:47:39.703Z,100.00
2022-09-07T02:50:09.127Z,100.00
2022-09-07T02:52:48.383Z,100.00
2022-09-07T02:55:45.892Z,100.00
2022-09-07T02:58:34.097Z,100.00
2022-09-07T03:01:19.835Z,100.00
2022-09-07T03:04:12.421Z,100.00
2022-09-07T03:06:47.145Z,100.00
2022-09-07T03:09:17.491Z,100.00
2022-09-07T03:11:44.067Z,100.00
2022-09-07T03:14:22.215Z,100.00
2022-09-07T03:16:50.854Z,100.00
2022-09-07T03:19:17.778Z,100.00
2022-09-07T03:21:44.563Z,100.00
2022-09-07T03:24:11.260Z,100.00
2022-09-07T03:26:44.536Z,100.00
2022-09-07T03:29:11.192Z,100.00
2022-09-07T03:31:37.674Z,100.00
2022-09-07T03:34:04.346Z,100.00
2022-09-07T03:36:31.320Z,100.00
2022-09-07T03:38:59.337Z,100.00
2022-09-07T03:41:26.713Z,100.00
2022-09-07T03:43:53.283Z,100.00
2022-09-07T03:46:19.884Z,100.00
2022-09-07T03:48:47.626Z,100.00
2022-09-07T03:51:15.138Z,100.00
2022-09-07T03:53:44.050Z,100.00
2022-09-07T03:56:13.829Z,100.00
2022-09-07T03:58:40.442Z,100.00
2022-09-07T04:01:09.438Z,100.00
2022-09-07T04:03:36.384Z,100.00
2022-09-07T04:06:03.697Z,100.00
2022-09-07T04:08:31.505Z,100.00
2022-09-07T04:11:02.514Z,100.00
2022-09-07T04:13:30.031Z,100.00
2022-09-07T04:15:56.897Z,100.00
2022-09-07T04:18:23.936Z,100.00
2022-09-07T04:20:50.868Z,100.00
2022-09-07T04:23:20.618Z,100.00
2022-09-07T04:25:51.494Z,100.00
2022-09-07T04:28:19.484Z,100.00
2022-09-07T04:30:46.953Z,100.00
2022-09-07T04:33:14.432Z,100.00
2022-09-07T04:35:41.892Z,100.00
2022-09-07T04:38:10.011Z,100.00
2022-09-07T04:40:36.465Z,100.00
2022-09-07T04:43:05.450Z,100.00
2022-09-07T04:45:31.926Z,100.00
2022-09-07T04:47:58.450Z,100.00
2022-09-07T04:50:24.911Z,100.00
2022-09-07T04:52:51.679Z,100.00
2022-09-07T04:55:18.920Z,100.00
2022-09-07T04:57:48.997Z,100.00
2022-09-07T05:00:16.194Z,100.00
2022-09-07T05:02:42.868Z,100.00
2022-09-07T05:05:09.613Z,100.00
2022-09-07T05:07:36.124Z,100.00
2022-09-07T05:10:02.931Z,100.00
2022-09-07T05:12:29.425Z,100.00
2022-09-07T05:14:55.961Z,100.00
2022-09-07T05:17:22.517Z,100.00
2022-09-07T05:19:49.057Z,100.00
2022-09-07T05:22:15.541Z,100.00
2022-09-07T05:24:42.008Z,100.00
2022-09-07T05:27:08.644Z,100.00
2022-09-07T05:32:21.715Z,100.00
2022-09-07T05:34:50.896Z,100.00
2022-09-07T05:37:19.009Z,100.00
2022-09-07T05:39:45.576Z,100.00
2022-09-07T05:42:12.160Z,100.00
2022-09-07T05:44:46.018Z,100.00
2022-09-07T05:47:13.188Z,100.00
2022-09-07T05:49:40.155Z,100.00
2022-09-07T05:52:06.832Z,100.00
2022-09-07T05:54:33.389Z,100.00
2022-09-07T05:57:00.010Z,100.00
2022-09-07T05:59:26.600Z,100.00
2022-09-07T06:01:53.252Z,100.00
2022-09-07T06:04:19.930Z,100.00
2022-09-07T06:07:04.683Z,100.00
2022-09-07T06:09:33.211Z,100.00
2022-09-07T06:11:59.805Z,100.00
2022-09-07T06:14:26.251Z,100.00
2022-09-07T06:16:53.780Z,100.00
2022-09-07T06:19:20.358Z,100.00
2022-09-07T06:21:46.947Z,100.00
2022-09-07T06:24:13.572Z,100.00
2022-09-07T06:26:40.086Z,100.00
2022-09-07T06:29:06.778Z,100.00
2022-09-07T06:31:33.559Z,100.00
2022-09-07T06:34:00.459Z,100.00
2022-09-07T06:36:27.864Z,100.00
2022-09-07T06:38:55.767Z,100.00
2022-09-07T06:44:11.597Z,83.17
2022-09-07T06:49:25.301Z,88.76
2022-09-07T06:51:51.873Z,85.98
2022-09-07T06:57:08.779Z,90.74
2022-09-07T06:59:36.125Z,94.22
2022-09-07T07:02:02.924Z,80.69
2022-09-07T07:04:29.505Z,77.04
2022-09-07T07:07:01.061Z,72.70
2022-09-07T07:09:27.541Z,70.02
2022-09-07T07:11:54.250Z,67.13
2022-09-07T07:14:21.197Z,69.36
2022-09-07T07:16:47.745Z,78.21
2022-09-07T07:19:14.547Z,83.62
2022-09-07T07:22:07.760Z,87.49
2022-09-07T07:24:27.469Z,88.54
2022-09-07T07:26:54.039Z,88.75
2022-09-07T07:29:22.777Z,89.48
2022-09-07T07:31:50.566Z,88.59
2022-09-07T07:34:17.001Z,89.23
2022-09-07T07:36:43.541Z,85.57
2022-09-07T07:41:58.901Z,83.88
2022-09-07T07:44:28.259Z,86.43
2022-09-07T07:46:54.737Z,86.15
2022-09-07T07:49:21.312Z,84.02
2022-09-07T07:54:36.870Z,85.22
2022-09-07T07:57:06.947Z,75.03
2022-09-07T07:59:34.027Z,74.67
2022-09-07T08:02:05.391Z,75.67
2022-09-07T08:04:35.447Z,69.17
2022-09-07T08:07:08.720Z,67.91
2022-09-07T08:09:37.939Z,64.85
2022-09-07T08:12:04.408Z,61.56
2022-09-07T08:14:42.514Z,62.76
2022-09-07T08:17:10.580Z,57.62
2022-09-07T08:19:37.570Z,60.05
2022-09-07T08:22:04.049Z,63.90
2022-09-07T08:24:31.512Z,61.95
2022-09-07T08:26:58.498Z,59.95
2022-09-07T08:29:24.928Z,64.14
2022-09-07T08:31:51.540Z,64.71
2022-09-07T08:34:18.049Z,64.58
2022-09-07T08:36:44.560Z,63.46
2022-09-07T08:39:11.075Z,66.36
2022-09-07T08:41:40.709Z,70.92
2022-09-07T08:44:34.200Z,73.32
2022-09-07T08:47:15.135Z,72.54
2022-09-07T08:49:50.738Z,71.05
2022-09-07T08:52:24.758Z,71.98
2022-09-07T08:55:00.439Z,72.55
2022-09-07T08:57:30.833Z,71.18
2022-09-07T09:00:13.875Z,69.14
2022-09-07T09:02:44.248Z,68.10
2022-09-07T09:05:22.643Z,66.01
2022-09-07T09:07:59.755Z,64.86
2022-09-07T09:10:53.995Z,68.52
2022-09-07T09:13:39.117Z,69.23
2022-09-07T09:16:13.499Z,68.77
2022-09-07T09:19:02.398Z,73.70
2022-09-07T09:21:29.029Z,73.37
2022-09-07T09:24:00.789Z,71.11
2022-09-07T09:26:31.786Z,67.95
2022-09-07T09:28:58.697Z,68.07
2022-09-07T09:31:34.219Z,68.06
2022-09-07T09:34:15.697Z,67.89
2022-09-07T09:36:44.187Z,64.66
2022-09-07T09:39:36.983Z,60.01
2022-09-07T09:42:17.739Z,56.81
2022-09-07T09:44:45.439Z,60.67
2022-09-07T09:47:30.355Z,67.82
2022-09-07T09:49:59.467Z,71.76
2022-09-07T09:52:30.204Z,74.17
2022-09-07T09:55:03.427Z,77.09
2022-09-07T10:04:00.477Z,84.99
2022-09-07T10:06:29.350Z,85.95
2022-09-07T10:09:00.736Z,87.19
2022-09-07T10:12:05.575Z,86.77
2022-09-07T10:14:35.575Z,83.75
2022-09-07T10:17:14.050Z,85.33
2022-09-07T10:19:42.763Z,82.91
2022-09-07T10:22:31.509Z,85.72
2022-09-07T10:24:58.411Z,87.11
2022-09-07T10:27:37.495Z,88.38
2022-09-07T10:30:12.424Z,86.29
2022-09-07T10:32:50.543Z,86.44
2022-09-07T10:35:43.896Z,87.73
2022-09-07T10:38:18.720Z,88.74
2022-09-07T10:41:00.030Z,90.63
2022-09-07T10:43:46.189Z,89.19
2022-09-07T10:46:59.618Z,90.43
2022-09-07T10:52:52.813Z,91.60
2022-09-07T10:55:28.950Z,93.32
2022-09-07T10:57:59.684Z,90.38
2022-09-07T11:00:30.046Z,88.57
2022-09-07T11:03:28.186Z,85.41
2022-09-07T11:06:16.021Z,82.04
2022-09-07T11:12:01.823Z,83.05
2022-09-07T11:14:32.641Z,84.18
2022-09-07T11:17:02.067Z,80.97
2022-09-07T11:19:52.720Z,79.59
2022-09-07T11:22:32.706Z,82.29
2022-09-07T11:25:29.457Z,84.20
2022-09-07T11:27:59.117Z,86.41
2022-09-07T11:30:31.253Z,88.37
2022-09-07T11:33:06.205Z,87.13
2022-09-07T11:35:50.428Z,87.96
2022-09-07T11:38:56.567Z,88.55
2022-09-07T11:41:22.941Z,84.56
2022-09-07T11:44:14.612Z,82.10
2022-09-07T11:46:43.793Z,78.08
2022-09-07T11:49:21.726Z,73.91
2022-09-07T11:51:55.561Z,69.28
2022-09-07T11:54:32.217Z,70.54
2022-09-07T11:57:39.307Z,72.70
2022-09-07T12:00:20.797Z,69.69
2022-09-07T12:03:25.144Z,73.38
2022-09-07T12:06:13.265Z,71.11
2022-09-07T12:08:53.940Z,67.65
2022-09-07T12:11:29.322Z,67.91
2022-09-07T12:14:03.990Z,69.72
2022-09-07T12:16:59.473Z,74.77
2022-09-07T12:19:27.156Z,79.24
2022-09-07T12:21:53.638Z,79.44
2022-09-07T12:24:32.425Z,82.11
2022-09-07T12:27:03.364Z,84.75
2022-09-07T12:29:31.413Z,86.02
2022-09-07T12:32:52.715Z,87.96
2022-09-07T12:34:50.940Z,91.18
2022-09-07T12:37:26.706Z,91.10
2022-09-07T12:40:30.501Z,96.42
2022-09-07T12:43:12.365Z,95.63
2022-09-07T12:45:38.825Z,97.95
2022-09-07T12:48:17.541Z,98.69
2022-09-07T12:50:56.825Z,100.00
2022-09-07T12:53:55.535Z,99.86
2022-09-07T12:56:44.207Z,100.00
2022-09-07T12:59:31.093Z,100.00
2022-09-07T13:02:22.985Z,100.00
2022-09-07T13:05:16.188Z,100.00
2022-09-07T13:08:08.314Z,100.00
2022-09-07T13:10:37.349Z,100.00
2022-09-07T13:13:14.544Z,100.00
2022-09-07T13:15:51.188Z,100.00
2022-09-07T13:18:27.232Z,100.00
2022-09-07T13:21:09.044Z,100.00
2022-09-07T13:23:35.954Z,100.00
2022-09-07T13:26:05.042Z,100.00
2022-09-07T13:28:58.107Z,100.00
2022-09-07T13:31:43.163Z,100.00
2022-09-07T13:34:34.588Z,100.00
2022-09-07T13:37:02.360Z,100.00
2022-09-07T13:39:29.062Z,100.00
2022-09-07T13:41:56.882Z,100.00
2022-09-07T13:44:26.745Z,100.00
2022-09-07T13:47:02.915Z,100.00
2022-09-07T13:49:56.027Z,100.00
2022-09-07T13:52:52.846Z,100.00
2022-09-07T13:55:26.852Z,100.00
2022-09-07T13:58:08.838Z,100.00
2022-09-07T14:00:35.215Z,100.00
2022-09-07T14:03:06.921Z,100.00
2022-09-07T14:05:33.416Z,95.15
2022-09-07T14:07:59.782Z,96.79
2022-09-07T14:10:26.652Z,94.25
2022-09-07T14:13:11.465Z,93.87
2022-09-07T14:15:41.552Z,94.07
2022-09-07T14:18:16.433Z,88.88
2022-09-07T14:21:01.389Z,94.16
2022-09-07T14:23:30.389Z,98.51
2022-09-07T14:26:19.744Z,100.00
2022-09-07T14:28:48.727Z,100.00
2022-09-07T14:31:17.534Z,100.00
2022-09-07T14:33:55.240Z,100.00
2022-09-07T14:36:44.034Z,100.00
2022-09-07T14:39:12.387Z,100.00
2022-09-07T14:41:40.606Z,92.09
2022-09-07T14:44:06.916Z,92.76
2022-09-07T14:46:34.141Z,92.10
2022-09-07T14:49:04.299Z,95.84
2022-09-07T14:51:36.053Z,99.90
2022-09-07T14:54:05.636Z,100.00
2022-09-07T14:56:41.547Z,100.00
2022-09-07T14:59:28.691Z,100.00
2022-09-07T15:02:26.951Z,100.00
2022-09-07T15:05:17.947Z,100.00
2022-09-07T15:07:53.283Z,100.00
2022-09-07T15:10:23.716Z,100.00
2022-09-07T15:13:01.373Z,100.00
2022-09-07T15:15:31.955Z,100.00
2022-09-07T15:18:07.450Z,100.00
2022-09-07T15:20:40.841Z,100.00
2022-09-07T15:23:13.049Z,100.00
2022-09-07T15:25:41.009Z,100.00
2022-09-07T15:28:07.907Z,100.00
2022-09-07T15:30:34.717Z,100.00
2022-09-07T15:33:02.587Z,100.00
2022-09-07T15:35:29.028Z,100.00
2022-09-07T15:38:04.596Z,100.00
2022-09-07T15:40:47.496Z,100.00
2022-09-07T15:43:26.772Z,100.00
2022-09-07T15:45:54.734Z,100.00
2022-09-07T15:48:25.244Z,100.00
2022-09-07T15:50:54.003Z,100.00
2022-09-07T15:56:11.198Z,100.00
2022-09-07T15:58:37.686Z,100.00
2022-09-07T16:03:54.852Z,89.04
2022-09-07T16:06:24.034Z,91.17
2022-09-07T16:08:51.834Z,94.62
2022-09-07T16:11:24.331Z,96.91
2022-09-07T16:14:01.581Z,93.65
2022-09-07T16:19:20.613Z,95.19
2022-09-07T16:21:47.182Z,98.55
2022-09-07T16:24:13.562Z,100.00
2022-09-07T16:26:40.630Z,100.00
2022-09-07T16:29:06.988Z,100.00
2022-09-07T16:31:33.641Z,100.00
2022-09-07T16:34:02.107Z,100.00
2022-09-07T16:36:30.436Z,100.00
2022-09-07T16:38:59.657Z,100.00
2022-09-07T16:41:29.166Z,100.00
2022-09-07T16:43:56.045Z,100.00
2022-09-07T16:46:25.123Z,100.00
2022-09-07T16:48:51.942Z,100.00
2022-09-07T16:51:21.217Z,100.00
2022-09-07T16:53:51.592Z,100.00
2022-09-07T16:56:22.785Z,100.00
2022-09-07T16:58:51.302Z,100.00
2022-09-07T17:01:19.997Z,100.00
2022-09-07T17:03:46.954Z,100.00
2022-09-07T17:06:14.136Z,100.00
2022-09-07T17:08:41.148Z,100.00
2022-09-07T17:11:16.509Z,100.00
2022-09-07T17:13:43.826Z,100.00
2022-09-07T17:16:14.945Z,100.00
2022-09-07T17:21:30.067Z,100.00
2022-09-07T17:23:56.478Z,100.00
2022-09-07T17:26:26.636Z,100.00
2022-09-07T17:28:59.751Z,100.00
2022-09-07T17:34:15.929Z,100.00
2022-09-07T17:39:18.013Z,100.00
2022-09-07T17:41:47.914Z,100.00
2022-09-07T17:44:14.443Z,100.00
2022-09-07T17:46:40.903Z,100.00
2022-09-07T17:49:12.091Z,100.00
2022-09-07T17:51:39.804Z,100.00
2022-09-07T17:54:11.190Z,100.00
2022-09-07T17:56:39.041Z,100.00
2022-09-07T18:01:55.663Z,100.00
2022-09-07T18:04:23.841Z,100.00
2022-09-07T18:06:51.149Z,100.00
2022-09-07T18:09:19.498Z,100.00
2022-09-07T18:11:47.729Z,100.00
2022-09-07T18:14:15.492Z,100.00
2022-09-07T18:16:45.838Z,100.00
2022-09-07T18:19:13.282Z,100.00
2022-09-07T18:21:41.964Z,100.00
2022-09-07T18:24:19.659Z,100.00
2022-09-07T18:26:52.200Z,100.00
2022-09-07T18:29:37.563Z,100.00
2022-09-07T18:32:08.459Z,100.00
2022-09-07T18:34:38.258Z,100.00
2022-09-07T18:37:07.450Z,100.00
2022-09-07T18:39:36.976Z,100.00
2022-09-07T18:42:04.170Z,100.00
2022-09-07T18:47:29.898Z,100.00
2022-09-07T18:49:57.532Z,100.00
2022-09-07T18:55:16.949Z,100.00
2022-09-07T18:57:43.751Z,100.00
2022-09-07T19:00:11.927Z,100.00
2022-09-07T19:02:38.683Z,100.00
2022-09-07T19:07:53.618Z,100.00
2022-09-07T19:10:22.889Z,100.00
2022-09-07T19:12:49.452Z,100.00
2022-09-07T19:15:21.024Z,100.00
2022-09-07T19:17:49.305Z,100.00
2022-09-07T19:20:15.881Z,100.00
2022-09-07T19:22:43.667Z,100.00
2022-09-07T19:25:11.653Z,100.00
2022-09-07T19:27:40.351Z,100.00
2022-09-07T19:30:07.515Z,100.00
2022-09-07T19:32:40.391Z,100.00
2022-09-07T19:35:07.173Z,100.00
2022-09-07T19:37:33.540Z,100.00
2022-09-07T19:40:00.589Z,100.00
2022-09-07T19:42:27.340Z,100.00
2022-09-07T19:44:54.313Z,100.00
2022-09-07T19:47:21.537Z,100.00
2022-09-07T19:49:49.174Z,100.00
2022-09-07T19:52:15.554Z,100.00
2022-09-07T19:54:42.253Z,100.00
2022-09-07T19:57:08.697Z,100.00
2022-09-07T19:59:35.144Z,100.00
2022-09-07T20:02:01.762Z,100.00
2022-09-07T20:04:28.732Z,100.00
2022-09-07T20:06:55.186Z,100.00
2022-09-07T20:09:25.956Z,100.00
2022-09-07T20:11:52.451Z,100.00
2022-09-07T20:14:19.166Z,100.00
2022-09-07T20:16:45.877Z,100.00
2022-09-07T20:19:14.770Z,100.00
2022-09-07T20:21:42.410Z,100.00
2022-09-07T20:24:11.251Z,100.00
2022-09-07T20:26:37.698Z,100.00
2022-09-07T20:29:26.714Z,100.00
2022-09-07T20:31:52.520Z,100.00
2022-09-07T20:34:19.053Z,100.00
2022-09-07T20:36:45.391Z,100.00
2022-09-07T20:39:21.633Z,100.00
2022-09-07T20:41:48.055Z,100.00
2022-09-07T20:44:14.660Z,100.00
2022-09-07T20:46:41.411Z,100.00
2022-09-07T20:49:08.087Z,100.00
2022-09-07T20:51:35.204Z,100.00
2022-09-07T20:54:01.631Z,100.00
2022-09-07T20:56:30.737Z,100.00
2022-09-07T20:59:02.157Z,100.00
2022-09-07T21:01:30.107Z,100.00
2022-09-07T21:03:58.317Z,100.00
2022-09-07T21:06:28.522Z,100.00
2022-09-07T21:08:56.860Z,100.00
2022-09-07T21:11:25.881Z,100.00
2022-09-07T21:14:06.386Z,100.00
2022-09-07T21:16:34.047Z,100.00
2022-09-07T21:19:03.846Z,100.00
2022-09-07T21:21:38.973Z,100.00
2022-09-07T21:24:14.913Z,100.00
2022-09-07T21:26:42.333Z,100.00
2022-09-07T21:29:13.923Z,100.00
2022-09-07T21:31:40.385Z,100.00
2022-09-07T21:34:06.899Z,100.00
2022-09-07T21:36:34.297Z,100.00
2022-09-07T21:39:00.899Z,100.00
2022-09-07T21:41:27.529Z,100.00
2022-09-07T21:43:58.407Z,100.00
2022-09-07T21:46:25.911Z,100.00
2022-09-07T21:48:52.753Z,100.00
2022-09-07T21:51:19.269Z,100.00
2022-09-07T21:53:54.397Z,100.00
2022-09-07T21:56:21.044Z,100.00
2022-09-07T21:58:48.397Z,100.00
2022-09-07T22:01:17.376Z,100.00
2022-09-07T22:03:48.253Z,100.00
2022-09-07T22:06:15.303Z,100.00
2022-09-07T22:08:42.683Z,100.00
2022-09-07T22:11:14.739Z,100.00
2022-09-07T22:13:43.343Z,100.00
2022-09-07T22:16:10.147Z,100.00
2022-09-07T22:18:37.883Z,100.00
2022-09-07T22:21:06.947Z,100.00
2022-09-07T22:23:35.293Z,100.00
2022-09-07T22:26:02.101Z,100.00
2022-09-07T22:28:30.091Z,100.00
2022-09-07T22:30:57.267Z,100.00
2022-09-07T22:33:23.932Z,100.00
2022-09-07T22:35:50.649Z,100.00
2022-09-07T22:38:24.011Z,100.00
2022-09-07T22:40:50.341Z,100.00
2022-09-07T22:43:16.758Z,100.00
2022-09-07T22:45:43.457Z,100.00
2022-09-07T22:48:09.841Z,100.00
2022-09-07T22:50:36.285Z,100.00
2022-09-07T22:53:02.707Z,100.00
2022-09-07T22:55:29.594Z,100.00
2022-09-07T22:57:55.966Z,100.00
2022-09-07T23:00:22.409Z,100.00
2022-09-07T23:02:49.034Z,100.00
2022-09-07T23:05:15.457Z,100.00
2022-09-07T23:07:42.148Z,100.00
2022-09-07T23:10:09.131Z,100.00
2022-09-07T23:12:35.574Z,100.00
2022-09-07T23:15:02.603Z,100.00
2022-09-07T23:17:29.776Z,100.00
2022-09-07T23:19:56.294Z,100.00
2022-09-07T23:22:32.133Z,100.00
2022-09-07T23:24:59.270Z,100.00
2022-09-07T23:27:27.066Z,100.00
2022-09-07T23:29:54.289Z,100.00
2022-09-07T23:32:20.805Z,100.00
2022-09-07T23:34:49.553Z,100.00
2022-09-07T23:37:16.084Z,100.00
2022-09-07T23:39:44.599Z,100.00
2022-09-07T23:42:11.034Z,100.00
2022-09-07T23:44:37.538Z,100.00
2022-09-07T23:47:04.701Z,100.00
2022-09-07T23:49:31.254Z,100.00
2022-09-07T23:51:57.834Z,100.00
2022-09-07T23:54:24.538Z,100.00
2022-09-07T23:56:51.016Z,100.00
2022-09-07T23:59:17.505Z,100.00
